createdAt,value
2018-01-17T00:00:14.607Z,11.13
2018-01-17T00:02:42.994Z,12.43
2018-01-17T00:05:10.676Z,14.70
2018-01-17T00:07:38.346Z,13.33
2018-01-17T00:10:06.113Z,14.53
2018-01-17T00:12:34.496Z,13.37
2018-01-17T00:15:02.252Z,12.40
2018-01-17T00:17:30.281Z,10.07
2018-01-17T00:19:58.197Z,10.57
2018-01-17T00:22:38.321Z,14.03
2018-01-17T00:25:06.005Z,13.73
2018-01-17T00:27:33.659Z,15.03
2018-01-17T00:30:01.500Z,10.63
2018-01-17T00:32:29.138Z,9.00
2018-01-17T00:34:57.546Z,11.43
2018-01-17T00:37:25.180Z,13.77
2018-01-17T00:39:52.814Z,12.43
2018-01-17T00:42:20.677Z,11.63
2018-01-17T00:44:49.360Z,12.10
2018-01-17T00:47:17.355Z,17.17
2018-01-17T00:49:45.204Z,10.60
2018-01-17T00:52:13.674Z,10.80
2018-01-17T00:54:41.435Z,15.47
2018-01-17T00:57:09.400Z,14.27
2018-01-17T00:59:37.885Z,9.97
2018-01-17T01:02:05.853Z,11.97
2018-01-17T01:04:33.612Z,14.47
2018-01-17T01:07:01.321Z,14.20
2018-01-17T01:09:29.862Z,9.77
2018-01-17T01:11:58.523Z,13.40
2018-01-17T01:14:26.770Z,12.40
2018-01-17T01:16:55.343Z,13.50
2018-01-17T01:19:23.158Z,13.33
2018-01-17T01:21:55.286Z,11.50
2018-01-17T01:24:23.293Z,16.67
2018-01-17T01:26:52.430Z,15.43
2018-01-17T01:29:22.383Z,10.33
2018-01-17T01:31:50.638Z,12.67
2018-01-17T01:34:18.439Z,12.97
2018-01-17T01:39:37.416Z,11.07
2018-01-17T01:42:05.084Z,9.57
2018-01-17T01:44:32.979Z,10.40
2018-01-17T01:47:00.704Z,11.23
2018-01-17T01:49:29.903Z,14.70
2018-01-17T01:51:57.669Z,14.00
2018-01-17T01:54:25.431Z,13.77
2018-01-17T01:56:53.357Z,10.70
2018-01-17T01:59:21.738Z,11.43
2018-01-17T02:01:50.366Z,12.97
2018-01-17T02:04:18.230Z,11.67
2018-01-17T02:06:46.091Z,12.20
2018-01-17T02:09:13.741Z,13.63
2018-01-17T02:11:41.642Z,13.13
2018-01-17T02:14:09.425Z,13.73
2018-01-17T02:16:38.015Z,11.27
2018-01-17T02:19:06.796Z,12.00
2018-01-17T02:21:35.563Z,14.20
2018-01-17T02:24:03.663Z,11.63
2018-01-17T02:26:31.318Z,12.37
2018-01-17T02:29:00.450Z,13.27
2018-01-17T02:31:29.327Z,10.70
2018-01-17T02:33:57.345Z,9.40
2018-01-17T02:36:25.189Z,15.97
2018-01-17T02:38:53.581Z,13.53
2018-01-17T02:41:22.152Z,11.80
2018-01-17T02:43:50.531Z,12.27
2018-01-17T02:46:18.357Z,9.00
2018-01-17T02:48:46.156Z,10.30
2018-01-17T02:51:13.964Z,12.87
2018-01-17T02:53:42.599Z,9.57
2018-01-17T02:56:10.575Z,9.87
2018-01-17T02:58:38.338Z,10.73
2018-01-17T03:01:06.910Z,10.50
2018-01-17T03:03:34.596Z,15.00
2018-01-17T03:06:02.241Z,10.90
2018-01-17T03:08:29.879Z,13.03
2018-01-17T03:10:57.572Z,17.83
2018-01-17T03:13:25.506Z,11.77
2018-01-17T03:15:53.225Z,12.40
2018-01-17T03:18:20.968Z,12.47
2018-01-17T03:20:48.719Z,13.50
2018-01-17T03:23:16.484Z,9.27
2018-01-17T03:25:44.356Z,11.93
2018-01-17T03:28:12.355Z,12.10
2018-01-17T03:30:40.187Z,18.93
2018-01-17T03:33:08.050Z,11.27
2018-01-17T03:35:35.748Z,12.53
2018-01-17T03:38:04.528Z,14.83
2018-01-17T03:40:32.176Z,11.30
2018-01-17T03:42:59.816Z,12.53
2018-01-17T03:45:27.891Z,14.53
2018-01-17T03:47:56.304Z,10.87
2018-01-17T03:50:24.131Z,12.57
2018-01-17T03:52:52.025Z,15.20
2018-01-17T03:55:19.831Z,13.07
2018-01-17T03:57:47.627Z,12.67
2018-01-17T04:00:15.391Z,14.07
2018-01-17T04:02:43.257Z,11.93
2018-01-17T04:05:10.897Z,10.47
2018-01-17T04:07:39.277Z,10.67
2018-01-17T04:10:06.970Z,14.23
2018-01-17T04:12:34.830Z,14.13
2018-01-17T04:15:02.486Z,10.17
2018-01-17T04:17:30.745Z,12.67
2018-01-17T04:19:58.464Z,9.67
2018-01-17T04:22:27.145Z,9.17
2018-01-17T04:24:55.693Z,14.23
2018-01-17T04:27:23.386Z,10.97
2018-01-17T04:29:51.939Z,9.83
2018-01-17T04:32:19.807Z,10.60
2018-01-17T04:34:47.733Z,12.73
2018-01-17T04:37:15.530Z,11.30
2018-01-17T04:39:43.393Z,11.37
2018-01-17T04:42:11.176Z,14.70
2018-01-17T04:44:38.824Z,10.17
2018-01-17T04:47:06.683Z,11.13
2018-01-17T04:49:34.321Z,7.73
2018-01-17T04:52:02.282Z,7.93
2018-01-17T04:54:30.217Z,9.80
2018-01-17T04:56:58.618Z,8.57
2018-01-17T04:59:26.360Z,10.93
2018-01-17T05:01:54.809Z,8.90
2018-01-17T05:04:22.450Z,9.80
2018-01-17T05:06:50.454Z,7.83
2018-01-17T05:09:18.300Z,10.77
2018-01-17T05:11:45.988Z,8.43
2018-01-17T05:14:13.821Z,7.47
2018-01-17T05:16:41.620Z,11.87
2018-01-17T05:19:10.166Z,10.20
2018-01-17T05:21:37.809Z,8.57
2018-01-17T05:24:05.483Z,6.73
2018-01-17T05:26:33.254Z,9.27
2018-01-17T05:29:00.887Z,7.87
2018-01-17T05:31:28.585Z,7.53
2018-01-17T05:33:56.214Z,8.10
2018-01-17T05:36:24.000Z,8.80
2018-01-17T05:38:52.012Z,7.00
2018-01-17T05:41:21.169Z,11.60
2018-01-17T05:43:48.856Z,9.80
2018-01-17T05:46:16.691Z,8.70
2018-01-17T05:48:44.405Z,8.23
2018-01-17T05:51:13.036Z,10.63
2018-01-17T05:53:40.902Z,8.17
2018-01-17T05:56:08.667Z,7.57
2018-01-17T05:58:36.794Z,8.13
2018-01-17T06:01:04.761Z,10.37
2018-01-17T06:03:33.291Z,13.00
2018-01-17T06:06:01.161Z,9.93
2018-01-17T06:08:28.916Z,7.83
2018-01-17T06:10:56.759Z,8.53
2018-01-17T06:13:25.170Z,11.43
2018-01-17T06:15:52.967Z,10.83
2018-01-17T06:18:21.609Z,10.07
2018-01-17T06:20:52.047Z,8.87
2018-01-17T06:23:20.902Z,10.67
2018-01-17T06:25:48.707Z,11.40
2018-01-17T06:28:16.553Z,9.97
2018-01-17T06:33:11.996Z,8.80
2018-01-17T06:35:40.565Z,9.37
2018-01-17T06:38:08.609Z,10.53
2018-01-17T06:40:36.907Z,12.37
2018-01-17T06:43:04.668Z,10.83
2018-01-17T06:45:33.375Z,12.13
2018-01-17T06:48:02.091Z,10.97
2018-01-17T06:50:30.559Z,10.10
2018-01-17T06:53:00.269Z,9.33
2018-01-17T06:55:28.542Z,12.53
2018-01-17T06:57:56.195Z,11.73
2018-01-17T07:00:24.135Z,11.17
2018-01-17T07:02:51.938Z,13.73
2018-01-17T07:05:20.474Z,13.03
2018-01-17T07:07:49.052Z,9.37
2018-01-17T07:10:17.294Z,9.23
2018-01-17T07:12:45.747Z,12.50
2018-01-17T07:15:13.736Z,13.03
2018-01-17T07:17:42.133Z,13.50
2018-01-17T07:20:09.861Z,10.90
2018-01-17T07:22:38.817Z,12.50
2018-01-17T07:25:06.518Z,11.27
2018-01-17T07:27:34.987Z,12.33
2018-01-17T07:30:02.825Z,15.13
2018-01-17T07:32:31.512Z,13.83
2018-01-17T07:34:59.480Z,12.37
2018-01-17T07:37:27.475Z,13.60
2018-01-17T07:39:55.462Z,12.73
2018-01-17T07:42:24.923Z,11.90
2018-01-17T07:44:52.615Z,13.00
2018-01-17T07:47:20.452Z,12.30
2018-01-17T07:49:48.663Z,15.53
2018-01-17T07:52:17.819Z,13.20
2018-01-17T07:54:45.585Z,17.43
2018-01-17T07:57:13.586Z,12.17
2018-01-17T07:59:42.072Z,15.07
2018-01-17T08:02:10.710Z,15.57
2018-01-17T08:04:38.473Z,14.47
2018-01-17T08:07:06.512Z,13.33
2018-01-17T08:09:34.892Z,16.80
2018-01-17T08:12:02.585Z,12.70
2018-01-17T08:14:30.221Z,14.97
2018-01-17T08:16:58.005Z,17.53
2018-01-17T08:19:25.874Z,16.97
2018-01-17T08:21:53.665Z,17.70
2018-01-17T08:24:21.501Z,15.33
2018-01-17T08:26:49.362Z,14.00
2018-01-17T08:29:17.826Z,17.23
2018-01-17T08:31:46.185Z,17.57
2018-01-17T08:34:13.988Z,19.33
2018-01-17T08:36:41.854Z,17.77
2018-01-17T08:39:09.718Z,22.17
2018-01-17T08:41:37.482Z,21.13
2018-01-17T08:44:05.193Z,16.87
2018-01-17T08:46:33.829Z,15.37
2018-01-17T08:49:01.838Z,18.83
2018-01-17T08:51:30.504Z,18.87
2018-01-17T08:53:59.944Z,15.73
2018-01-17T08:56:28.206Z,13.30
2018-01-17T08:58:56.711Z,14.13
2018-01-17T09:01:24.915Z,12.40
2018-01-17T09:03:52.781Z,10.40
2018-01-17T09:06:20.545Z,15.87
2018-01-17T09:08:48.421Z,18.70
2018-01-17T09:11:16.788Z,21.03
2018-01-17T09:13:44.553Z,18.43
2018-01-17T09:16:12.519Z,18.07
2018-01-17T09:18:41.142Z,17.77
2018-01-17T09:21:09.619Z,18.10
2018-01-17T09:23:38.164Z,14.30
2018-01-17T09:26:06.560Z,18.67
2018-01-17T09:28:34.410Z,15.30
2018-01-17T09:31:02.234Z,15.53
2018-01-17T09:33:29.981Z,15.73
2018-01-17T09:35:59.336Z,13.60
2018-01-17T09:38:26.993Z,13.70
2018-01-17T09:40:54.659Z,14.57
2018-01-17T09:43:22.330Z,15.97
2018-01-17T09:45:50.184Z,15.40
2018-01-17T09:48:17.858Z,14.33
2018-01-17T09:50:45.711Z,12.53
2018-01-17T09:53:13.371Z,11.63
2018-01-17T09:55:41.259Z,15.00
2018-01-17T09:58:09.821Z,12.70
2018-01-17T10:00:37.556Z,10.77
2018-01-17T10:03:06.398Z,12.10
2018-01-17T10:05:34.086Z,11.50
2018-01-17T10:08:02.509Z,10.10
2018-01-17T10:10:31.104Z,10.80
2018-01-17T10:12:59.372Z,11.33
2018-01-17T10:15:28.428Z,11.53
2018-01-17T10:17:56.976Z,9.40
2018-01-17T10:20:24.764Z,10.57
2018-01-17T10:22:53.291Z,12.83
2018-01-17T10:25:21.056Z,13.60
2018-01-17T10:27:49.538Z,11.83
2018-01-17T10:30:17.798Z,12.70
2018-01-17T10:32:45.437Z,10.23
2018-01-17T10:35:13.413Z,12.27
2018-01-17T10:37:41.100Z,10.57
2018-01-17T10:40:08.865Z,10.70
2018-01-17T10:42:36.570Z,9.77
2018-01-17T10:45:05.107Z,10.43
2018-01-17T10:47:32.871Z,8.10
2018-01-17T10:50:00.737Z,10.83
2018-01-17T10:52:28.502Z,10.47
2018-01-17T10:54:56.881Z,10.40
2018-01-17T10:57:24.646Z,9.63
2018-01-17T10:59:52.411Z,14.43
2018-01-17T11:02:20.278Z,12.33
2018-01-17T11:04:48.041Z,10.10
2018-01-17T11:07:15.802Z,12.20
2018-01-17T11:09:43.566Z,7.33
2018-01-17T11:12:11.337Z,9.43
2018-01-17T11:14:39.125Z,8.73
2018-01-17T11:17:06.815Z,11.87
2018-01-17T11:19:34.449Z,7.97
2018-01-17T11:22:02.853Z,8.17
2018-01-17T11:24:31.483Z,8.60
2018-01-17T11:26:59.421Z,7.33
2018-01-17T11:29:27.204Z,10.13
2018-01-17T11:31:55.003Z,7.53
2018-01-17T11:34:22.834Z,7.73
2018-01-17T11:36:50.597Z,7.07
2018-01-17T11:39:19.180Z,9.57
2018-01-17T11:41:46.975Z,7.47
2018-01-17T11:44:14.808Z,8.77
2018-01-17T11:46:43.287Z,8.77
2018-01-17T11:49:11.672Z,7.40
2018-01-17T11:51:40.048Z,7.50
2018-01-17T11:54:07.790Z,8.20
2018-01-17T11:56:35.432Z,9.33
2018-01-17T11:59:03.257Z,10.27
2018-01-17T12:01:31.096Z,8.77
2018-01-17T12:03:58.860Z,8.77
2018-01-17T12:06:26.626Z,9.20
2018-01-17T12:08:54.330Z,6.03
2018-01-17T12:11:23.830Z,10.73
2018-01-17T12:13:52.313Z,7.00
2018-01-17T12:16:20.789Z,9.83
2018-01-17T12:18:49.701Z,8.27
2018-01-17T12:21:18.043Z,8.60
2018-01-17T12:23:45.725Z,7.53
2018-01-17T12:26:14.265Z,5.70
2018-01-17T12:28:42.399Z,8.40
2018-01-17T12:31:10.678Z,8.63
2018-01-17T12:33:38.354Z,9.80
2018-01-17T12:36:06.137Z,7.27
2018-01-17T12:38:33.998Z,8.37
2018-01-17T12:41:02.376Z,8.50
2018-01-17T12:43:30.361Z,9.27
2018-01-17T12:45:58.627Z,9.23
2018-01-17T12:48:26.360Z,10.13
2018-01-17T12:50:54.094Z,11.13
2018-01-17T12:53:22.627Z,8.63
2018-01-17T12:55:50.493Z,11.73
2018-01-17T12:58:18.255Z,11.73
2018-01-17T13:00:46.622Z,12.60
2018-01-17T13:03:14.404Z,13.33
2018-01-17T13:05:42.166Z,12.97
2018-01-17T13:08:09.970Z,16.27
2018-01-17T13:10:39.159Z,13.33
2018-01-17T13:13:07.551Z,11.70
2018-01-17T13:15:36.189Z,12.23
2018-01-17T13:18:03.843Z,17.07
2018-01-17T13:20:31.490Z,12.47
2018-01-17T13:22:59.985Z,15.17
2018-01-17T13:25:27.794Z,11.97
2018-01-17T13:27:56.950Z,13.17
2018-01-17T13:30:24.949Z,10.73
2018-01-17T13:32:53.900Z,9.50
2018-01-17T13:35:21.710Z,10.40
2018-01-17T13:37:50.156Z,10.80
2018-01-17T13:40:18.021Z,11.23
2018-01-17T13:42:45.779Z,9.73
2018-01-17T13:45:13.645Z,10.20
2018-01-17T13:47:41.510Z,11.63
2018-01-17T13:50:09.787Z,14.67
2018-01-17T13:52:37.549Z,11.27
2018-01-17T13:55:05.268Z,12.20
2018-01-17T13:57:33.076Z,10.77
2018-01-17T14:00:01.659Z,12.67
2018-01-17T14:02:29.525Z,14.10
2018-01-17T14:04:57.233Z,12.57
2018-01-17T14:07:25.870Z,10.30
2018-01-17T14:09:53.655Z,15.00
2018-01-17T14:12:21.398Z,16.70
2018-01-17T14:14:49.852Z,10.90
2018-01-17T14:17:17.640Z,11.50
2018-01-17T14:19:45.404Z,15.87
2018-01-17T14:22:13.170Z,12.17
2018-01-17T14:24:40.877Z,11.43
2018-01-17T14:27:09.376Z,12.23
2018-01-17T14:29:37.077Z,10.53
2018-01-17T14:32:04.874Z,11.17
2018-01-17T14:34:33.431Z,9.20
2018-01-17T14:37:02.178Z,14.47
2018-01-17T14:39:29.976Z,10.63
2018-01-17T14:41:57.741Z,8.13
2018-01-17T14:44:25.626Z,7.13
2018-01-17T14:46:53.581Z,10.33
2018-01-17T14:49:21.339Z,8.17
2018-01-17T14:51:49.501Z,7.70
2018-01-17T14:54:17.209Z,10.93
2018-01-17T14:56:46.578Z,7.20
2018-01-17T14:59:14.331Z,10.77
2018-01-17T15:01:41.973Z,7.43
2018-01-17T15:04:09.683Z,7.97
2018-01-17T15:06:37.516Z,9.87
2018-01-17T15:09:05.565Z,7.00
2018-01-17T15:11:34.307Z,6.90
2018-01-17T15:14:01.957Z,8.57
2018-01-17T15:16:29.802Z,6.30
2018-01-17T15:18:58.186Z,5.20
2018-01-17T15:21:25.940Z,6.33
2018-01-17T15:23:53.703Z,6.13
2018-01-17T15:26:21.493Z,8.87
2018-01-17T15:28:49.289Z,5.27
2018-01-17T15:31:17.556Z,5.10
2018-01-17T15:33:46.158Z,5.87
2018-01-17T15:36:13.961Z,6.17
2018-01-17T15:38:41.716Z,12.03
2018-01-17T15:41:09.535Z,7.60
2018-01-17T15:43:38.165Z,8.80
2018-01-17T15:46:05.993Z,5.17
2018-01-17T15:48:34.283Z,7.30
2018-01-17T15:51:02.692Z,9.97
2018-01-17T15:53:31.120Z,6.47
2018-01-17T15:55:58.799Z,10.53
2018-01-17T15:58:27.215Z,8.63
2018-01-17T16:00:55.069Z,9.10
2018-01-17T16:03:22.892Z,6.97
2018-01-17T16:05:51.244Z,5.50
2018-01-17T16:08:18.953Z,10.10
2018-01-17T16:10:46.614Z,6.90
2018-01-17T16:13:14.897Z,9.63
2018-01-17T16:15:42.672Z,9.27
2018-01-17T16:18:11.029Z,8.57
2018-01-17T16:20:39.225Z,9.00
2018-01-17T16:23:07.088Z,6.63
2018-01-17T16:25:35.466Z,9.60
2018-01-17T16:28:03.332Z,9.67
2018-01-17T16:30:31.585Z,10.70
2018-01-17T16:32:59.261Z,11.47
2018-01-17T16:35:27.246Z,10.13
2018-01-17T16:37:55.025Z,12.40
2018-01-17T16:40:22.768Z,9.80
2018-01-17T16:42:51.141Z,10.70
2018-01-17T16:45:18.905Z,10.10
2018-01-17T16:47:46.668Z,12.23
2018-01-17T16:50:14.334Z,10.23
2018-01-17T16:52:42.127Z,11.93
2018-01-17T16:55:10.088Z,9.60
2018-01-17T17:00:11.749Z,11.43
2018-01-17T17:02:40.316Z,15.70
2018-01-17T17:05:07.975Z,7.10
2018-01-17T17:07:35.842Z,8.27
2018-01-17T17:10:03.710Z,11.30
2018-01-17T17:12:31.598Z,10.80
2018-01-17T17:14:59.450Z,8.97
2018-01-17T17:17:27.204Z,13.37
2018-01-17T17:19:55.701Z,11.70
2018-01-17T17:22:23.550Z,12.10
2018-01-17T17:24:51.586Z,10.43
2018-01-17T17:27:19.324Z,11.53
2018-01-17T17:29:48.008Z,13.33
2018-01-17T17:32:17.311Z,14.93
2018-01-17T17:34:46.497Z,9.70
2018-01-17T17:37:14.262Z,9.90
2018-01-17T17:39:41.980Z,11.63
2018-01-17T17:42:10.330Z,13.70
2018-01-17T17:44:38.026Z,6.50
2018-01-17T17:47:05.791Z,11.53
2018-01-17T17:49:34.272Z,10.53
2018-01-17T17:52:02.170Z,9.47
2018-01-17T17:54:30.757Z,9.50
2018-01-17T17:56:59.219Z,14.77
2018-01-17T17:59:26.918Z,12.93
2018-01-17T18:01:56.331Z,9.10
2018-01-17T18:04:26.855Z,9.63
2018-01-17T18:06:54.502Z,8.23
2018-01-17T18:09:22.484Z,11.07
2018-01-17T18:11:50.305Z,11.83
2018-01-17T18:14:18.006Z,9.73
2018-01-17T18:16:48.565Z,10.40
2018-01-17T18:19:16.281Z,10.77
2018-01-17T18:21:45.332Z,13.60
2018-01-17T18:24:13.325Z,13.87
2018-01-17T18:26:41.592Z,11.47
2018-01-17T18:29:09.443Z,13.23
2018-01-17T18:31:37.206Z,12.07
2018-01-17T18:34:04.871Z,13.27
2018-01-17T18:36:32.883Z,10.00
2018-01-17T18:39:01.732Z,9.10
2018-01-17T18:41:30.314Z,10.23
2018-01-17T18:43:58.125Z,10.73
2018-01-17T18:46:26.357Z,12.73
2018-01-17T18:48:54.865Z,8.00
2018-01-17T18:51:23.412Z,10.97
2018-01-17T18:53:51.171Z,9.83
2018-01-17T18:56:18.934Z,11.73
2018-01-17T18:58:46.677Z,10.47
2018-01-17T19:01:14.676Z,12.33
2018-01-17T19:03:43.195Z,12.77
2018-01-17T19:06:11.729Z,12.93
2018-01-17T19:08:39.599Z,10.93
2018-01-17T19:11:07.602Z,10.37
2018-01-17T19:13:36.153Z,14.67
2018-01-17T19:16:03.959Z,12.07
2018-01-17T19:18:32.892Z,11.13
2018-01-17T19:21:00.543Z,12.60
2018-01-17T19:23:28.783Z,15.63
2018-01-17T19:25:57.317Z,12.63
2018-01-17T19:28:25.284Z,13.10
2018-01-17T19:30:54.498Z,14.63
2018-01-17T19:33:22.519Z,14.10
2018-01-17T19:35:51.036Z,14.77
2018-01-17T19:38:19.364Z,10.63
2018-01-17T19:40:48.237Z,13.13
2018-01-17T19:43:17.496Z,11.90
2018-01-17T19:45:46.101Z,13.30
2018-01-17T19:48:14.222Z,10.70
2018-01-17T19:50:42.746Z,12.33
2018-01-17T19:53:10.599Z,12.03
2018-01-17T19:55:38.645Z,10.90
2018-01-17T19:58:08.889Z,11.10
2018-01-17T20:00:37.677Z,16.43
2018-01-17T20:03:05.573Z,11.27
2018-01-17T20:05:36.108Z,12.83
2018-01-17T20:08:03.866Z,9.97
2018-01-17T20:10:31.508Z,11.33
2018-01-17T20:12:59.261Z,11.27
2018-01-17T20:15:27.642Z,12.13
2018-01-17T20:17:55.507Z,12.07
2018-01-17T20:20:23.368Z,12.43
2018-01-17T20:22:57.001Z,12.77
2018-01-17T20:25:24.836Z,12.57
2018-01-17T20:27:53.622Z,10.57
2018-01-17T20:30:21.386Z,12.20
2018-01-17T20:32:49.870Z,12.77
2018-01-17T20:35:17.732Z,11.27
2018-01-17T20:37:45.597Z,11.63
2018-01-17T20:40:13.287Z,13.67
2018-01-17T20:42:41.063Z,12.00
2018-01-17T20:45:09.513Z,13.47
2018-01-17T20:47:38.014Z,14.50
2018-01-17T20:50:05.746Z,13.50
2018-01-17T20:52:33.611Z,12.73
2018-01-17T20:55:01.587Z,11.07
2018-01-17T20:57:29.446Z,12.30
2018-01-17T20:59:57.125Z,10.30
2018-01-17T21:02:27.230Z,12.90
2018-01-17T21:04:55.027Z,10.07
2018-01-17T21:07:23.519Z,9.80
2018-01-17T21:09:53.043Z,13.47
2018-01-17T21:12:21.279Z,14.00
2018-01-17T21:14:48.962Z,11.43
2018-01-17T21:17:16.780Z,10.83
2018-01-17T21:19:44.545Z,8.70
2018-01-17T21:22:12.238Z,12.00
2018-01-17T21:24:40.993Z,10.77
2018-01-17T21:27:09.634Z,8.47
2018-01-17T21:29:37.906Z,9.93
2018-01-17T21:32:05.715Z,10.67
2018-01-17T21:34:37.044Z,14.80
2018-01-17T21:37:18.130Z,10.77
2018-01-17T21:39:46.355Z,12.43
2018-01-17T21:42:20.018Z,12.93
2018-01-17T21:44:53.589Z,11.90
2018-01-17T21:47:22.086Z,10.93
2018-01-17T21:49:49.956Z,7.40
2018-01-17T21:52:18.332Z,11.37
2018-01-17T21:54:46.104Z,8.70
2018-01-17T21:57:13.788Z,9.30
2018-01-17T21:59:43.057Z,11.27
2018-01-17T22:02:10.959Z,12.07
2018-01-17T22:04:39.506Z,10.90
2018-01-17T22:07:07.193Z,18.43
2018-01-17T22:09:34.901Z,11.03
2018-01-17T22:12:03.295Z,8.60
2018-01-17T22:14:31.070Z,13.63
2018-01-17T22:16:59.683Z,11.00
2018-01-17T22:19:27.520Z,10.80
2018-01-17T22:21:55.489Z,10.50
2018-01-17T22:24:26.208Z,9.70
2018-01-17T22:26:53.941Z,8.07
2018-01-17T22:29:21.703Z,10.47
2018-01-17T22:31:49.588Z,12.53
2018-01-17T22:34:17.315Z,10.53
2018-01-17T22:36:45.708Z,8.30
2018-01-17T22:39:13.483Z,6.77
2018-01-17T22:41:41.870Z,7.00
2018-01-17T22:44:10.426Z,7.50
2018-01-17T22:46:39.733Z,8.17
2018-01-17T22:49:07.437Z,9.17
2018-01-17T22:51:35.446Z,7.47
2018-01-17T22:54:03.988Z,7.23
2018-01-17T22:56:32.571Z,7.93
2018-01-17T22:59:01.227Z,7.80
2018-01-17T23:01:29.684Z,7.03
2018-01-17T23:03:58.318Z,7.37
2018-01-17T23:06:26.794Z,9.10
2018-01-17T23:08:55.505Z,6.90
2018-01-17T23:11:23.150Z,7.97
2018-01-17T23:13:51.243Z,7.37
2018-01-17T23:16:20.280Z,5.20
2018-01-17T23:18:48.580Z,6.30
2018-01-17T23:21:17.979Z,5.83
2018-01-17T23:23:46.396Z,8.23
2018-01-17T23:26:14.129Z,6.07
2018-01-17T23:28:41.800Z,9.33
2018-01-17T23:31:10.270Z,6.33
2018-01-17T23:33:38.135Z,6.20
2018-01-17T23:36:05.774Z,4.90
2018-01-17T23:38:36.529Z,5.87
2018-01-17T23:41:06.443Z,4.13
2018-01-17T23:43:34.797Z,3.63
2018-01-17T23:46:02.586Z,4.40
2018-01-17T23:48:30.283Z,6.43
2018-01-17T23:50:59.443Z,4.77
2018-01-17T23:53:27.315Z,5.20
2018-01-17T23:55:55.173Z,3.60
2018-01-17T23:58:23.161Z,4.43
